sensor_id;sensor_type;location;lat;lon;timestamp;temperature;humidity
26599;DHT22;14240;51.064;16.612;2023-05-21T00:02:14;12.80;99.90
26599;DHT22;14240;51.064;16.612;2023-05-21T00:04:42;12.70;99.90
26599;DHT22;14240;51.064;16.612;2023-05-21T00:07:08;12.70;99.90
26599;DHT22;14240;51.064;16.612;2023-05-21T00:09:35;12.70;99.90
26599;DHT22;14240;51.064;16.612;2023-05-21T00:12:06;12.70;99.90
26599;DHT22;14240;51.064;16.612;2023-05-21T00:14:33;12.70;99.90
26599;DHT22;14240;51.064;16.612;2023-05-21T00:16:59;12.70;99.90
26599;DHT22;14240;51.064;16.612;2023-05-21T00:19:24;12.60;99.90
26599;DHT22;14240;51.064;16.612;2023-05-21T00:21:51;12.60;99.90
26599;DHT22;14240;51.064;16.612;2023-05-21T00:24:17;12.60;99.90
26599;DHT22;14240;51.064;16.612;2023-05-21T00:26:43;12.60;99.90
26599;DHT22;14240;51.064;16.612;2023-05-21T00:29:09;12.50;99.90
26599;DHT22;14240;51.064;16.612;2023-05-21T00:31:35;12.50;99.90
26599;DHT22;14240;51.064;16.612;2023-05-21T00:34:00;12.40;99.90
26599;DHT22;14240;51.064;16.612;2023-05-21T00:36:26;12.40;99.90
26599;DHT22;14240;51.064;16.612;2023-05-21T00:38:52;12.30;99.90
26599;DHT22;14240;51.064;16.612;2023-05-21T00:41:18;12.20;99.90
26599;DHT22;14240;51.064;16.612;2023-05-21T00:43:44;12.10;99.90
26599;DHT22;14240;51.064;16.612;2023-05-21T00:46:13;12.00;99.90
26599;DHT22;14240;51.064;16.612;2023-05-21T00:48:42;12.00;99.90
26599;DHT22;14240;51.064;16.612;2023-05-21T00:51:08;11.90;99.90
26599;DHT22;14240;51.064;16.612;2023-05-21T00:53:34;11.90;99.90
26599;DHT22;14240;51.064;16.612;2023-05-21T00:56:01;11.80;99.90
26599;DHT22;14240;51.064;16.612;2023-05-21T00:58:28;11.80;99.90
26599;DHT22;14240;51.064;16.612;2023-05-21T01:00:54;11.80;99.90
26599;DHT22;14240;51.064;16.612;2023-05-21T01:03:22;11.80;99.90
26599;DHT22;14240;51.064;16.612;2023-05-21T01:05:50;11.90;99.90
26599;DHT22;14240;51.064;16.612;2023-05-21T01:08:18;11.90;99.90
26599;DHT22;14240;51.064;16.612;2023-05-21T01:10:49;11.90;99.90
26599;DHT22;14240;51.064;16.612;2023-05-21T01:13:15;12.00;99.90
26599;DHT22;14240;51.064;16.612;2023-05-21T01:15:45;12.00;99.90
26599;DHT22;14240;51.064;16.612;2023-05-21T01:18:12;12.00;99.90
26599;DHT22;14240;51.064;16.612;2023-05-21T01:20:39;12.10;99.90
26599;DHT22;14240;51.064;16.612;2023-05-21T01:23:07;12.10;99.90
26599;DHT22;14240;51.064;16.612;2023-05-21T01:25:34;12.10;99.90
26599;DHT22;14240;51.064;16.612;2023-05-21T01:27:59;12.10;99.90
26599;DHT22;14240;51.064;16.612;2023-05-21T01:30:25;12.20;99.90
26599;DHT22;14240;51.064;16.612;2023-05-21T01:33:05;12.10;99.90
26599;DHT22;14240;51.064;16.612;2023-05-21T01:35:35;12.20;99.90
26599;DHT22;14240;51.064;16.612;2023-05-21T01:40:55;12.20;99.90
26599;DHT22;14240;51.064;16.612;2023-05-21T01:43:30;12.20;99.90
26599;DHT22;14240;51.064;16.612;2023-05-21T01:45:58;12.10;99.90
26599;DHT22;14240;51.064;16.612;2023-05-21T01:48:27;11.90;99.90
26599;DHT22;14240;51.064;16.612;2023-05-21T01:50:56;12.10;99.90
26599;DHT22;14240;51.064;16.612;2023-05-21T01:53:23;12.10;99.90
26599;DHT22;14240;51.064;16.612;2023-05-21T01:55:49;12.10;99.90
26599;DHT22;14240;51.064;16.612;2023-05-21T01:58:15;12.10;99.90
26599;DHT22;14240;51.064;16.612;2023-05-21T02:00:41;12.10;99.90
26599;DHT22;14240;51.064;16.612;2023-05-21T02:03:09;12.10;99.90
26599;DHT22;14240;51.064;16.612;2023-05-21T02:05:35;12.10;99.90
26599;DHT22;14240;51.064;16.612;2023-05-21T02:08:01;12.10;99.90
26599;DHT22;14240;51.064;16.612;2023-05-21T02:10:27;12.20;99.90
26599;DHT22;14240;51.064;16.612;2023-05-21T02:12:52;12.10;99.90
26599;DHT22;14240;51.064;16.612;2023-05-21T02:15:18;12.20;99.90
26599;DHT22;14240;51.064;16.612;2023-05-21T02:17:45;12.20;99.90
26599;DHT22;14240;51.064;16.612;2023-05-21T02:20:11;12.20;99.90
26599;DHT22;14240;51.064;16.612;2023-05-21T02:22:43;12.30;99.90
26599;DHT22;14240;51.064;16.612;2023-05-21T02:25:09;12.30;99.90
26599;DHT22;14240;51.064;16.612;2023-05-21T02:27:36;12.40;99.90
26599;DHT22;14240;51.064;16.612;2023-05-21T02:30:04;12.40;99.90
26599;DHT22;14240;51.064;16.612;2023-05-21T02:32:30;12.40;99.90
26599;DHT22;14240;51.064;16.612;2023-05-21T02:35:00;12.50;99.90
26599;DHT22;14240;51.064;16.612;2023-05-21T02:37:26;12.50;99.90
26599;DHT22;14240;51.064;16.612;2023-05-21T02:39:53;12.40;99.90
26599;DHT22;14240;51.064;16.612;2023-05-21T02:42:20;12.40;99.90
26599;DHT22;14240;51.064;16.612;2023-05-21T02:44:46;12.40;99.90
26599;DHT22;14240;51.064;16.612;2023-05-21T02:47:12;12.40;99.90
26599;DHT22;14240;51.064;16.612;2023-05-21T02:49:38;12.50;99.90
26599;DHT22;14240;51.064;16.612;2023-05-21T02:52:04;12.50;99.90
26599;DHT22;14240;51.064;16.612;2023-05-21T02:54:30;12.50;99.90
26599;DHT22;14240;51.064;16.612;2023-05-21T02:56:55;12.40;99.90
26599;DHT22;14240;51.064;16.612;2023-05-21T02:59:22;12.50;99.90
26599;DHT22;14240;51.064;16.612;2023-05-21T03:01:48;12.50;99.90
26599;DHT22;14240;51.064;16.612;2023-05-21T03:04:14;12.60;99.90
26599;DHT22;14240;51.064;16.612;2023-05-21T03:06:41;12.50;99.90
26599;DHT22;14240;51.064;16.612;2023-05-21T03:09:07;12.50;99.90
26599;DHT22;14240;51.064;16.612;2023-05-21T03:11:33;12.50;99.90
26599;DHT22;14240;51.064;16.612;2023-05-21T03:13:59;12.60;99.90
26599;DHT22;14240;51.064;16.612;2023-05-21T03:16:25;12.60;99.90
26599;DHT22;14240;51.064;16.612;2023-05-21T03:18:50;12.60;99.90
26599;DHT22;14240;51.064;16.612;2023-05-21T03:21:16;12.60;99.90
26599;DHT22;14240;51.064;16.612;2023-05-21T03:23:42;12.60;99.90
26599;DHT22;14240;51.064;16.612;2023-05-21T03:26:08;12.60;99.90
26599;DHT22;14240;51.064;16.612;2023-05-21T03:28:36;12.60;99.90
26599;DHT22;14240;51.064;16.612;2023-05-21T03:31:02;12.70;99.90
26599;DHT22;14240;51.064;16.612;2023-05-21T03:33:28;12.70;99.90
26599;DHT22;14240;51.064;16.612;2023-05-21T03:35:54;12.70;99.90
26599;DHT22;14240;51.064;16.612;2023-05-21T03:38:20;12.70;99.90
26599;DHT22;14240;51.064;16.612;2023-05-21T03:40:46;12.80;99.90
26599;DHT22;14240;51.064;16.612;2023-05-21T03:43:11;12.80;99.90
26599;DHT22;14240;51.064;16.612;2023-05-21T03:45:37;12.80;99.90
26599;DHT22;14240;51.064;16.612;2023-05-21T03:48:03;12.80;99.90
26599;DHT22;14240;51.064;16.612;2023-05-21T03:50:29;12.80;99.90
26599;DHT22;14240;51.064;16.612;2023-05-21T03:52:55;12.90;99.90
26599;DHT22;14240;51.064;16.612;2023-05-21T03:55:21;12.80;99.90
26599;DHT22;14240;51.064;16.612;2023-05-21T03:57:46;12.90;99.90
26599;DHT22;14240;51.064;16.612;2023-05-21T04:00:12;12.90;99.90
26599;DHT22;14240;51.064;16.612;2023-05-21T04:02:38;13.00;99.90
26599;DHT22;14240;51.064;16.612;2023-05-21T04:05:04;13.00;99.90
26599;DHT22;14240;51.064;16.612;2023-05-21T04:07:31;13.00;99.90
26599;DHT22;14240;51.064;16.612;2023-05-21T04:09:57;13.10;99.90
26599;DHT22;14240;51.064;16.612;2023-05-21T04:12:24;13.10;99.90
26599;DHT22;14240;51.064;16.612;2023-05-21T04:14:51;13.20;99.90
26599;DHT22;14240;51.064;16.612;2023-05-21T04:17:17;13.20;99.90
26599;DHT22;14240;51.064;16.612;2023-05-21T04:19:43;13.30;99.90
26599;DHT22;14240;51.064;16.612;2023-05-21T04:22:09;13.30;99.90
26599;DHT22;14240;51.064;16.612;2023-05-21T04:24:36;13.40;99.90
26599;DHT22;14240;51.064;16.612;2023-05-21T04:27:02;13.50;99.90
26599;DHT22;14240;51.064;16.612;2023-05-21T04:29:28;13.50;99.90
26599;DHT22;14240;51.064;16.612;2023-05-21T04:31:54;13.60;99.90
26599;DHT22;14240;51.064;16.612;2023-05-21T04:34:20;13.70;99.90
26599;DHT22;14240;51.064;16.612;2023-05-21T04:36:46;13.80;99.90
26599;DHT22;14240;51.064;16.612;2023-05-21T04:39:12;13.90;99.90
26599;DHT22;14240;51.064;16.612;2023-05-21T04:41:39;14.10;99.90
26599;DHT22;14240;51.064;16.612;2023-05-21T04:44:07;14.20;99.90
26599;DHT22;14240;51.064;16.612;2023-05-21T04:46:33;14.30;99.90
26599;DHT22;14240;51.064;16.612;2023-05-21T04:49:02;14.50;99.90
26599;DHT22;14240;51.064;16.612;2023-05-21T04:51:29;14.70;99.90
26599;DHT22;14240;51.064;16.612;2023-05-21T04:53:55;14.90;99.90
26599;DHT22;14240;51.064;16.612;2023-05-21T04:56:22;15.10;99.90
26599;DHT22;14240;51.064;16.612;2023-05-21T04:58:54;15.30;99.90
26599;DHT22;14240;51.064;16.612;2023-05-21T05:01:21;15.50;99.90
26599;DHT22;14240;51.064;16.612;2023-05-21T05:03:51;15.60;99.90
26599;DHT22;14240;51.064;16.612;2023-05-21T05:06:17;15.70;99.90
26599;DHT22;14240;51.064;16.612;2023-05-21T05:08:43;15.90;99.90
26599;DHT22;14240;51.064;16.612;2023-05-21T05:11:11;16.00;99.90
26599;DHT22;14240;51.064;16.612;2023-05-21T05:13:38;16.10;99.90
26599;DHT22;14240;51.064;16.612;2023-05-21T05:16:04;16.30;99.90
26599;DHT22;14240;51.064;16.612;2023-05-21T05:18:30;16.60;99.90
26599;DHT22;14240;51.064;16.612;2023-05-21T05:20:57;16.90;99.90
26599;DHT22;14240;51.064;16.612;2023-05-21T05:23:23;17.20;99.90
26599;DHT22;14240;51.064;16.612;2023-05-21T05:25:49;17.50;99.90
26599;DHT22;14240;51.064;16.612;2023-05-21T05:28:14;17.70;99.90
26599;DHT22;14240;51.064;16.612;2023-05-21T05:30:40;17.90;99.90
26599;DHT22;14240;51.064;16.612;2023-05-21T05:33:06;18.10;99.90
26599;DHT22;14240;51.064;16.612;2023-05-21T05:35:31;18.30;99.90
26599;DHT22;14240;51.064;16.612;2023-05-21T05:37:57;18.40;99.90
26599;DHT22;14240;51.064;16.612;2023-05-21T05:40:23;18.60;99.90
26599;DHT22;14240;51.064;16.612;2023-05-21T05:42:48;18.70;99.90
26599;DHT22;14240;51.064;16.612;2023-05-21T05:45:17;18.90;99.90
26599;DHT22;14240;51.064;16.612;2023-05-21T05:47:43;19.20;99.90
26599;DHT22;14240;51.064;16.612;2023-05-21T05:50:09;19.50;99.90
26599;DHT22;14240;51.064;16.612;2023-05-21T05:52:35;19.80;99.90
26599;DHT22;14240;51.064;16.612;2023-05-21T05:55:01;20.10;99.90
26599;DHT22;14240;51.064;16.612;2023-05-21T05:57:27;20.50;99.90
26599;DHT22;14240;51.064;16.612;2023-05-21T05:59:52;20.80;99.90
26599;DHT22;14240;51.064;16.612;2023-05-21T06:02:18;21.10;99.90
26599;DHT22;14240;51.064;16.612;2023-05-21T06:04:43;21.30;99.90
26599;DHT22;14240;51.064;16.612;2023-05-21T06:07:09;21.60;99.90
26599;DHT22;14240;51.064;16.612;2023-05-21T06:09:35;21.90;99.90
26599;DHT22;14240;51.064;16.612;2023-05-21T06:12:03;22.20;99.90
26599;DHT22;14240;51.064;16.612;2023-05-21T06:14:29;22.40;99.90
26599;DHT22;14240;51.064;16.612;2023-05-21T06:16:55;22.70;99.90
26599;DHT22;14240;51.064;16.612;2023-05-21T06:19:21;23.00;99.90
26599;DHT22;14240;51.064;16.612;2023-05-21T06:21:47;23.20;99.90
26599;DHT22;14240;51.064;16.612;2023-05-21T06:24:12;23.40;99.90
26599;DHT22;14240;51.064;16.612;2023-05-21T06:26:38;23.60;99.90
26599;DHT22;14240;51.064;16.612;2023-05-21T06:29:04;23.80;99.90
26599;DHT22;14240;51.064;16.612;2023-05-21T06:31:30;23.90;99.90
26599;DHT22;14240;51.064;16.612;2023-05-21T06:33:57;24.00;99.90
26599;DHT22;14240;51.064;16.612;2023-05-21T06:36:25;24.00;99.90
26599;DHT22;14240;51.064;16.612;2023-05-21T06:38:54;24.10;99.90
26599;DHT22;14240;51.064;16.612;2023-05-21T06:41:20;24.10;99.90
26599;DHT22;14240;51.064;16.612;2023-05-21T06:43:46;24.00;99.90
26599;DHT22;14240;51.064;16.612;2023-05-21T06:46:12;24.10;99.90
26599;DHT22;14240;51.064;16.612;2023-05-21T06:48:38;24.30;99.90
26599;DHT22;14240;51.064;16.612;2023-05-21T06:51:04;24.50;99.90
26599;DHT22;14240;51.064;16.612;2023-05-21T06:53:29;24.60;99.90
26599;DHT22;14240;51.064;16.612;2023-05-21T06:55:57;24.80;99.90
26599;DHT22;14240;51.064;16.612;2023-05-21T06:58:23;25.10;99.90
26599;DHT22;14240;51.064;16.612;2023-05-21T07:00:49;25.30;99.90
26599;DHT22;14240;51.064;16.612;2023-05-21T07:03:16;25.40;99.90
26599;DHT22;14240;51.064;16.612;2023-05-21T07:05:42;25.40;99.90
26599;DHT22;14240;51.064;16.612;2023-05-21T07:08:07;25.50;99.90
26599;DHT22;14240;51.064;16.612;2023-05-21T07:10:33;25.50;99.90
26599;DHT22;14240;51.064;16.612;2023-05-21T07:12:59;25.70;99.90
26599;DHT22;14240;51.064;16.612;2023-05-21T07:15:24;25.80;99.90
26599;DHT22;14240;51.064;16.612;2023-05-21T07:17:50;26.00;99.90
26599;DHT22;14240;51.064;16.612;2023-05-21T07:20:16;26.10;99.90
26599;DHT22;14240;51.064;16.612;2023-05-21T07:22:43;26.10;99.90
26599;DHT22;14240;51.064;16.612;2023-05-21T07:25:08;26.10;99.90
26599;DHT22;14240;51.064;16.612;2023-05-21T07:27:34;26.10;99.90
26599;DHT22;14240;51.064;16.612;2023-05-21T07:30:00;26.00;99.90
26599;DHT22;14240;51.064;16.612;2023-05-21T07:32:26;25.90;99.90
26599;DHT22;14240;51.064;16.612;2023-05-21T07:34:53;25.90;99.90
26599;DHT22;14240;51.064;16.612;2023-05-21T07:37:19;26.00;99.90
26599;DHT22;14240;51.064;16.612;2023-05-21T07:39:45;26.00;99.90
26599;DHT22;14240;51.064;16.612;2023-05-21T07:42:11;26.10;99.90
26599;DHT22;14240;51.064;16.612;2023-05-21T07:44:37;26.20;99.90
26599;DHT22;14240;51.064;16.612;2023-05-21T07:47:03;26.50;99.90
26599;DHT22;14240;51.064;16.612;2023-05-21T07:49:29;26.70;99.90
26599;DHT22;14240;51.064;16.612;2023-05-21T07:51:56;27.00;99.90
26599;DHT22;14240;51.064;16.612;2023-05-21T07:54:21;27.00;99.90
26599;DHT22;14240;51.064;16.612;2023-05-21T07:56:47;27.00;99.90
26599;DHT22;14240;51.064;16.612;2023-05-21T07:59:16;26.90;99.90
26599;DHT22;14240;51.064;16.612;2023-05-21T08:01:41;27.00;99.90
26599;DHT22;14240;51.064;16.612;2023-05-21T08:04:08;27.10;99.90
26599;DHT22;14240;51.064;16.612;2023-05-21T08:06:34;27.20;99.90
26599;DHT22;14240;51.064;16.612;2023-05-21T08:09:02;27.10;99.90
26599;DHT22;14240;51.064;16.612;2023-05-21T08:11:28;27.00;99.80
26599;DHT22;14240;51.064;16.612;2023-05-21T08:13:54;26.90;99.90
26599;DHT22;14240;51.064;16.612;2023-05-21T08:16:21;26.80;99.90
26599;DHT22;14240;51.064;16.612;2023-05-21T08:18:48;27.00;99.90
26599;DHT22;14240;51.064;16.612;2023-05-21T08:21:14;27.10;99.90
26599;DHT22;14240;51.064;16.612;2023-05-21T08:23:40;27.10;99.90
26599;DHT22;14240;51.064;16.612;2023-05-21T08:26:06;27.20;99.90
26599;DHT22;14240;51.064;16.612;2023-05-21T08:28:33;27.10;99.70
26599;DHT22;14240;51.064;16.612;2023-05-21T08:31:00;27.00;99.90
26599;DHT22;14240;51.064;16.612;2023-05-21T08:33:26;26.90;99.90
26599;DHT22;14240;51.064;16.612;2023-05-21T08:35:52;26.90;99.90
26599;DHT22;14240;51.064;16.612;2023-05-21T08:38:18;26.80;99.90
26599;DHT22;14240;51.064;16.612;2023-05-21T08:40:45;26.60;99.90
26599;DHT22;14240;51.064;16.612;2023-05-21T08:43:12;26.50;99.90
26599;DHT22;14240;51.064;16.612;2023-05-21T08:45:43;26.50;99.90
26599;DHT22;14240;51.064;16.612;2023-05-21T08:48:09;26.30;99.90
26599;DHT22;14240;51.064;16.612;2023-05-21T08:50:36;26.20;99.90
26599;DHT22;14240;51.064;16.612;2023-05-21T08:53:02;26.00;99.90
26599;DHT22;14240;51.064;16.612;2023-05-21T08:55:28;26.00;99.90
26599;DHT22;14240;51.064;16.612;2023-05-21T08:57:55;25.80;99.90
26599;DHT22;14240;51.064;16.612;2023-05-21T09:00:21;25.80;99.90
26599;DHT22;14240;51.064;16.612;2023-05-21T09:02:47;25.70;99.90
26599;DHT22;14240;51.064;16.612;2023-05-21T09:05:14;25.60;99.90
26599;DHT22;14240;51.064;16.612;2023-05-21T09:08:08;25.60;99.90
26599;DHT22;14240;51.064;16.612;2023-05-21T09:10:38;25.60;99.90
26599;DHT22;14240;51.064;16.612;2023-05-21T09:13:04;25.60;99.90
26599;DHT22;14240;51.064;16.612;2023-05-21T09:15:32;25.60;99.90
26599;DHT22;14240;51.064;16.612;2023-05-21T09:17:58;25.50;99.90
26599;DHT22;14240;51.064;16.612;2023-05-21T09:20:25;25.50;99.90
26599;DHT22;14240;51.064;16.612;2023-05-21T09:22:52;25.40;99.90
26599;DHT22;14240;51.064;16.612;2023-05-21T09:25:27;25.40;99.90
26599;DHT22;14240;51.064;16.612;2023-05-21T09:27:56;25.40;99.90
26599;DHT22;14240;51.064;16.612;2023-05-21T09:30:23;25.20;99.90
26599;DHT22;14240;51.064;16.612;2023-05-21T09:32:54;25.20;99.90
26599;DHT22;14240;51.064;16.612;2023-05-21T09:35:21;25.20;99.90
26599;DHT22;14240;51.064;16.612;2023-05-21T09:37:48;25.10;99.90
26599;DHT22;14240;51.064;16.612;2023-05-21T09:40:16;25.10;99.90
26599;DHT22;14240;51.064;16.612;2023-05-21T09:42:45;25.00;99.90
26599;DHT22;14240;51.064;16.612;2023-05-21T09:45:11;25.00;99.90
26599;DHT22;14240;51.064;16.612;2023-05-21T09:47:42;25.00;99.90
26599;DHT22;14240;51.064;16.612;2023-05-21T09:50:10;25.00;99.90
26599;DHT22;14240;51.064;16.612;2023-05-21T09:52:37;25.10;99.90
26599;DHT22;14240;51.064;16.612;2023-05-21T09:55:04;25.10;99.90
26599;DHT22;14240;51.064;16.612;2023-05-21T09:57:30;25.10;99.90
26599;DHT22;14240;51.064;16.612;2023-05-21T09:59:56;25.20;99.90
26599;DHT22;14240;51.064;16.612;2023-05-21T10:02:23;25.20;99.90
26599;DHT22;14240;51.064;16.612;2023-05-21T10:04:51;25.30;99.50
26599;DHT22;14240;51.064;16.612;2023-05-21T10:07:20;25.30;99.70
26599;DHT22;14240;51.064;16.612;2023-05-21T10:09:53;25.30;99.60
26599;DHT22;14240;51.064;16.612;2023-05-21T10:12:22;25.40;99.10
26599;DHT22;14240;51.064;16.612;2023-05-21T10:14:52;25.40;98.90
26599;DHT22;14240;51.064;16.612;2023-05-21T10:17:18;25.40;99.00
26599;DHT22;14240;51.064;16.612;2023-05-21T10:19:46;25.50;98.70
26599;DHT22;14240;51.064;16.612;2023-05-21T10:22:13;25.50;99.60
26599;DHT22;14240;51.064;16.612;2023-05-21T10:24:39;25.60;99.50
26599;DHT22;14240;51.064;16.612;2023-05-21T10:27:06;25.60;99.20
26599;DHT22;14240;51.064;16.612;2023-05-21T10:29:32;25.70;99.20
26599;DHT22;14240;51.064;16.612;2023-05-21T10:32:02;25.80;99.10
26599;DHT22;14240;51.064;16.612;2023-05-21T10:34:30;25.80;98.80
26599;DHT22;14240;51.064;16.612;2023-05-21T10:36:58;25.90;98.20
26599;DHT22;14240;51.064;16.612;2023-05-21T10:39:25;25.90;97.50
26599;DHT22;14240;51.064;16.612;2023-05-21T10:45:37;26.00;97.80
26599;DHT22;14240;51.064;16.612;2023-05-21T10:53:42;26.20;97.60
26599;DHT22;14240;51.064;16.612;2023-05-21T10:56:23;26.30;97.30
26599;DHT22;14240;51.064;16.612;2023-05-21T11:01:37;26.50;96.80
26599;DHT22;14240;51.064;16.612;2023-05-21T11:04:12;26.50;96.90
26599;DHT22;14240;51.064;16.612;2023-05-21T11:06:46;26.60;97.30
26599;DHT22;14240;51.064;16.612;2023-05-21T11:09:13;26.60;96.80
26599;DHT22;14240;51.064;16.612;2023-05-21T11:11:40;26.50;96.20
26599;DHT22;14240;51.064;16.612;2023-05-21T11:16:57;26.40;95.80
26599;DHT22;14240;51.064;16.612;2023-05-21T11:19:37;26.30;95.90
26599;DHT22;14240;51.064;16.612;2023-05-21T11:22:24;26.30;95.80
26599;DHT22;14240;51.064;16.612;2023-05-21T11:24:51;26.30;95.80
26599;DHT22;14240;51.064;16.612;2023-05-21T11:27:39;26.20;95.50
26599;DHT22;14240;51.064;16.612;2023-05-21T11:30:25;26.20;96.10
26599;DHT22;14240;51.064;16.612;2023-05-21T11:38:10;26.30;96.50
26599;DHT22;14240;51.064;16.612;2023-05-21T11:40:36;26.30;96.00
26599;DHT22;14240;51.064;16.612;2023-05-21T11:43:02;26.30;96.00
26599;DHT22;14240;51.064;16.612;2023-05-21T11:45:29;26.20;96.60
26599;DHT22;14240;51.064;16.612;2023-05-21T11:47:56;26.20;96.00
26599;DHT22;14240;51.064;16.612;2023-05-21T11:50:21;26.80;96.10
26599;DHT22;14240;51.064;16.612;2023-05-21T11:52:48;26.10;96.00
26599;DHT22;14240;51.064;16.612;2023-05-21T11:55:14;26.10;96.20
26599;DHT22;14240;51.064;16.612;2023-05-21T11:57:43;26.00;95.80
26599;DHT22;14240;51.064;16.612;2023-05-21T12:00:13;26.10;96.40
26599;DHT22;14240;51.064;16.612;2023-05-21T12:02:50;26.20;96.40
26599;DHT22;14240;51.064;16.612;2023-05-21T12:05:16;26.20;97.40
26599;DHT22;14240;51.064;16.612;2023-05-21T12:07:45;26.20;96.60
26599;DHT22;14240;51.064;16.612;2023-05-21T12:10:13;26.30;96.40
26599;DHT22;14240;51.064;16.612;2023-05-21T12:12:39;26.30;95.80
26599;DHT22;14240;51.064;16.612;2023-05-21T12:15:05;26.30;96.20
26599;DHT22;14240;51.064;16.612;2023-05-21T12:17:31;26.30;95.70
26599;DHT22;14240;51.064;16.612;2023-05-21T12:19:57;26.30;96.10
26599;DHT22;14240;51.064;16.612;2023-05-21T12:22:24;26.30;96.40
26599;DHT22;14240;51.064;16.612;2023-05-21T12:24:52;26.40;96.30
26599;DHT22;14240;51.064;16.612;2023-05-21T12:27:19;26.40;96.10
26599;DHT22;14240;51.064;16.612;2023-05-21T12:29:47;26.50;95.90
26599;DHT22;14240;51.064;16.612;2023-05-21T12:32:14;26.50;96.20
26599;DHT22;14240;51.064;16.612;2023-05-21T12:34:47;26.50;95.90
26599;DHT22;14240;51.064;16.612;2023-05-21T12:37:22;26.50;95.50
26599;DHT22;14240;51.064;16.612;2023-05-21T12:39:51;26.60;94.90
26599;DHT22;14240;51.064;16.612;2023-05-21T12:42:24;26.60;94.70
26599;DHT22;14240;51.064;16.612;2023-05-21T12:44:52;26.70;94.80
26599;DHT22;14240;51.064;16.612;2023-05-21T12:47:17;26.60;94.50
26599;DHT22;14240;51.064;16.612;2023-05-21T12:49:44;26.60;94.70
26599;DHT22;14240;51.064;16.612;2023-05-21T12:52:13;26.50;94.10
26599;DHT22;14240;51.064;16.612;2023-05-21T12:54:42;26.40;94.80
26599;DHT22;14240;51.064;16.612;2023-05-21T12:57:21;26.40;94.60
26599;DHT22;14240;51.064;16.612;2023-05-21T12:59:58;26.40;94.40
26599;DHT22;14240;51.064;16.612;2023-05-21T13:02:30;26.40;93.20
26599;DHT22;14240;51.064;16.612;2023-05-21T13:05:04;26.40;93.20
26599;DHT22;14240;51.064;16.612;2023-05-21T13:07:31;26.40;93.70
26599;DHT22;14240;51.064;16.612;2023-05-21T13:09:58;26.40;94.20
26599;DHT22;14240;51.064;16.612;2023-05-21T13:12:28;26.40;94.30
26599;DHT22;14240;51.064;16.612;2023-05-21T13:14:59;26.40;94.40
26599;DHT22;14240;51.064;16.612;2023-05-21T13:17:26;26.40;93.60
26599;DHT22;14240;51.064;16.612;2023-05-21T13:22:47;26.40;93.00
26599;DHT22;14240;51.064;16.612;2023-05-21T13:25:16;26.20;93.90
26599;DHT22;14240;51.064;16.612;2023-05-21T13:27:44;26.20;94.20
26599;DHT22;14240;51.064;16.612;2023-05-21T13:30:10;26.10;93.70
26599;DHT22;14240;51.064;16.612;2023-05-21T13:32:37;26.10;94.30
26599;DHT22;14240;51.064;16.612;2023-05-21T13:35:03;26.00;94.70
26599;DHT22;14240;51.064;16.612;2023-05-21T13:37:29;26.00;95.00
26599;DHT22;14240;51.064;16.612;2023-05-21T13:39:55;26.00;95.20
26599;DHT22;14240;51.064;16.612;2023-05-21T13:42:22;26.00;95.10
26599;DHT22;14240;51.064;16.612;2023-05-21T13:44:48;26.00;95.30
26599;DHT22;14240;51.064;16.612;2023-05-21T13:47:14;26.00;95.40
26599;DHT22;14240;51.064;16.612;2023-05-21T13:49:40;26.00;94.70
26599;DHT22;14240;51.064;16.612;2023-05-21T13:52:07;25.90;95.30
26599;DHT22;14240;51.064;16.612;2023-05-21T13:54:34;25.90;96.00
26599;DHT22;14240;51.064;16.612;2023-05-21T13:57:00;25.90;95.00
26599;DHT22;14240;51.064;16.612;2023-05-21T14:02:50;25.80;94.80
26599;DHT22;14240;51.064;16.612;2023-05-21T14:05:17;25.80;94.30
26599;DHT22;14240;51.064;16.612;2023-05-21T14:07:42;25.80;94.70
26599;DHT22;14240;51.064;16.612;2023-05-21T14:10:08;25.70;95.20
26599;DHT22;14240;51.064;16.612;2023-05-21T14:12:34;25.80;95.20
26599;DHT22;14240;51.064;16.612;2023-05-21T14:18:32;25.80;95.60
26599;DHT22;14240;51.064;16.612;2023-05-21T14:21:33;25.80;96.20
26599;DHT22;14240;51.064;16.612;2023-05-21T14:24:02;25.80;96.10
26599;DHT22;14240;51.064;16.612;2023-05-21T14:26:28;25.80;96.10
26599;DHT22;14240;51.064;16.612;2023-05-21T14:29:08;25.80;96.50
26599;DHT22;14240;51.064;16.612;2023-05-21T14:32:40;25.80;96.90
26599;DHT22;14240;51.064;16.612;2023-05-21T14:35:09;25.90;96.60
26599;DHT22;14240;51.064;16.612;2023-05-21T14:37:35;25.90;96.60
26599;DHT22;14240;51.064;16.612;2023-05-21T14:40:01;25.80;95.90
26599;DHT22;14240;51.064;16.612;2023-05-21T14:42:27;25.90;95.80
26599;DHT22;14240;51.064;16.612;2023-05-21T14:44:53;25.80;95.20
26599;DHT22;14240;51.064;16.612;2023-05-21T14:47:19;25.90;95.60
26599;DHT22;14240;51.064;16.612;2023-05-21T14:49:45;26.00;95.50
26599;DHT22;14240;51.064;16.612;2023-05-21T14:52:10;26.00;95.30
26599;DHT22;14240;51.064;16.612;2023-05-21T14:54:36;26.00;95.70
26599;DHT22;14240;51.064;16.612;2023-05-21T14:57:02;26.10;96.00
26599;DHT22;14240;51.064;16.612;2023-05-21T14:59:29;26.10;96.20
26599;DHT22;14240;51.064;16.612;2023-05-21T15:01:54;26.10;95.20
26599;DHT22;14240;51.064;16.612;2023-05-21T15:04:20;26.10;94.90
26599;DHT22;14240;51.064;16.612;2023-05-21T15:06:47;26.10;94.30
26599;DHT22;14240;51.064;16.612;2023-05-21T15:09:14;26.00;93.70
26599;DHT22;14240;51.064;16.612;2023-05-21T15:11:40;26.00;94.10
26599;DHT22;14240;51.064;16.612;2023-05-21T15:14:12;26.00;94.90
26599;DHT22;14240;51.064;16.612;2023-05-21T15:16:44;25.90;94.90
26599;DHT22;14240;51.064;16.612;2023-05-21T15:19:11;25.90;94.20
26599;DHT22;14240;51.064;16.612;2023-05-21T15:21:42;25.90;93.70
26599;DHT22;14240;51.064;16.612;2023-05-21T15:24:08;25.80;94.50
26599;DHT22;14240;51.064;16.612;2023-05-21T15:26:35;25.80;94.70
26599;DHT22;14240;51.064;16.612;2023-05-21T15:29:07;25.80;94.90
26599;DHT22;14240;51.064;16.612;2023-05-21T15:31:39;25.80;95.00
26599;DHT22;14240;51.064;16.612;2023-05-21T15:34:04;25.80;95.10
26599;DHT22;14240;51.064;16.612;2023-05-21T15:36:30;25.80;94.80
26599;DHT22;14240;51.064;16.612;2023-05-21T15:38:56;25.80;94.70
26599;DHT22;14240;51.064;16.612;2023-05-21T15:41:21;25.80;94.30
26599;DHT22;14240;51.064;16.612;2023-05-21T15:43:47;25.80;93.90
26599;DHT22;14240;51.064;16.612;2023-05-21T15:46:13;25.80;93.30
26599;DHT22;14240;51.064;16.612;2023-05-21T15:48:39;25.70;94.10
26599;DHT22;14240;51.064;16.612;2023-05-21T15:51:04;25.70;92.90